Time;durP1;ratioP1;P1;durP2;ratioP2;P2;SDS_P1;SDS_P2;PMS_P1;PMS_P2;Temp;Humidity;BMP_temperature;BMP_pressure;BME280_temperature;BME280_humidity;BME280_pressure;Samples;Min_cycle;Max_cycle;Signal;HPM_P1;HPM_P2
2023/03/30 00:00:17;;;;;;;;;;;13.10;1.00;;;;;;5054614;28;19915;-72
2023/03/30 00:02:47;;;;;;;;;;;13.10;1.00;;;;;;5054388;28;20373;-73
2023/03/30 00:05:14;;;;;;;;;;;13.10;1.00;;;;;;5053045;28;20373;-72
2023/03/30 00:07:44;;;;;;;;;;;13.10;1.00;;;;;;5054630;28;19984;-73
2023/03/30 00:10:10;;;;;;;;;;;13.20;1.00;;;;;;5054285;28;19913;-73
2023/03/30 00:12:36;;;;;;;;;;;13.20;1.00;;;;;;5054191;28;19913;-73
2023/03/30 00:15:03;;;;;;;;;;;13.20;1.00;;;;;;5054211;28;19915;-74
2023/03/30 00:17:29;;;;;;;;;;;13.20;1.00;;;;;;5054385;28;19948;-71
2023/03/30 00:19:55;;;;;;;;;;;13.20;1.00;;;;;;5054380;28;19909;-72
2023/03/30 00:22:21;;;;;;;;;;;13.20;1.00;;;;;;5054058;28;20388;-74
2023/03/30 00:24:46;;;;;;;;;;;13.20;1.00;;;;;;5053944;28;19995;-72
2023/03/30 00:27:12;;;;;;;;;;;13.20;1.00;;;;;;5054376;28;19939;-73
2023/03/30 00:29:37;;;;;;;;;;;13.20;1.00;;;;;;5054221;28;20042;-72
2023/03/30 00:32:03;;;;;;;;;;;13.30;1.00;;;;;;5053890;28;19909;-72
2023/03/30 00:34:29;;;;;;;;;;;13.30;1.00;;;;;;5053867;28;19916;-74
2023/03/30 00:36:55;;;;;;;;;;;13.30;1.00;;;;;;5054085;28;19909;-73
2023/03/30 00:39:21;;;;;;;;;;;13.30;1.00;;;;;;5053843;28;20344;-73
2023/03/30 00:41:47;;;;;;;;;;;13.30;1.00;;;;;;5053679;28;20373;-71
2023/03/30 00:44:34;;;;;;;;;;;13.40;99.90;;;;;;5052668;28;20373;-73
2023/03/30 00:47:00;;;;;;;;;;;13.40;99.90;;;;;;5053948;28;19913;-73
2023/03/30 00:49:26;;;;;;;;;;;13.30;99.90;;;;;;5052594;28;20361;-74
2023/03/30 00:51:51;;;;;;;;;;;13.40;99.90;;;;;;5053939;28;19997;-72
2023/03/30 00:54:19;;;;;;;;;;;13.30;99.90;;;;;;5053778;28;20428;-72
2023/03/30 00:56:45;;;;;;;;;;;13.10;99.90;;;;;;5053469;28;19909;-72
2023/03/30 00:59:11;;;;;;;;;;;13.10;99.90;;;;;;5053537;28;19932;-74
2023/03/30 01:01:39;;;;;;;;;;;13.10;99.90;;;;;;5053577;28;19909;-73
2023/03/30 01:04:05;;;;;;;;;;;13.00;99.90;;;;;;5053437;28;20289;-73
2023/03/30 01:06:32;;;;;;;;;;;13.00;99.90;;;;;;5053500;28;19909;-72
2023/03/30 01:08:58;;;;;;;;;;;12.90;99.90;;;;;;5053824;28;19913;-73
2023/03/30 01:11:25;;;;;;;;;;;12.90;99.90;;;;;;5053448;28;20396;-72
2023/03/30 01:13:57;;;;;;;;;;;12.80;99.90;;;;;;5054337;28;20396;-74
2023/03/30 01:16:32;;;;;;;;;;;12.90;99.90;;;;;;5057990;28;19917;-72
2023/03/30 01:19:17;;;;;;;;;;;12.80;99.90;;;;;;5057522;28;20026;-71
2023/03/30 01:21:44;;;;;;;;;;;12.90;99.90;;;;;;5057536;28;19908;-72
2023/03/30 01:24:28;;;;;;;;;;;12.80;99.90;;;;;;5057385;28;19913;-72
2023/03/30 01:26:54;;;;;;;;;;;12.80;99.90;;;;;;5057307;28;20009;-72
2023/03/30 01:29:24;;;;;;;;;;;12.70;99.90;;;;;;5057342;28;19944;-72
2023/03/30 01:31:59;;;;;;;;;;;12.70;99.90;;;;;;5057254;28;20439;-72
2023/03/30 01:34:25;;;;;;;;;;;12.70;99.90;;;;;;5057209;28;20366;-72
2023/03/30 01:37:07;;;;;;;;;;;12.70;99.90;;;;;;5057338;28;19909;-71
2023/03/30 01:39:40;;;;;;;;;;;12.80;99.90;;;;;;5057399;28;19988;-72
2023/03/30 01:42:26;;;;;;;;;;;12.70;99.90;;;;;;5056850;28;19941;-73
2023/03/30 01:44:54;;;;;;;;;;;12.70;99.90;;;;;;5056988;28;19921;-73
2023/03/30 01:47:34;;;;;;;;;;;12.60;99.90;;;;;;5057176;28;19908;-74
2023/03/30 01:50:22;;;;;;;;;;;12.50;99.90;;;;;;5057067;28;19909;-72
2023/03/30 01:52:58;;;;;;;;;;;12.60;99.90;;;;;;5057312;28;19936;-73
2023/03/30 01:55:42;;;;;;;;;;;12.60;99.90;;;;;;5055502;28;20365;-73
2023/03/30 01:58:25;;;;;;;;;;;12.60;99.90;;;;;;5056669;28;19909;-73
2023/03/30 02:00:52;;;;;;;;;;;12.50;99.90;;;;;;5057082;28;19909;-73
2023/03/30 02:03:21;;;;;;;;;;;12.60;99.90;;;;;;5056756;28;19912;-72
2023/03/30 02:05:49;;;;;;;;;;;12.70;99.90;;;;;;5056674;28;19909;-72
2023/03/30 02:08:17;;;;;;;;;;;12.60;99.90;;;;;;5056839;28;19930;-73
2023/03/30 02:10:43;;;;;;;;;;;12.50;99.90;;;;;;5056539;28;19958;-72
2023/03/30 02:13:10;;;;;;;;;;;12.50;99.90;;;;;;5056504;28;19909;-73
2023/03/30 02:15:41;;;;;;;;;;;12.50;99.90;;;;;;5056510;28;19966;-74
2023/03/30 02:18:07;;;;;;;;;;;12.50;99.90;;;;;;5056451;28;20399;-73
2023/03/30 02:20:34;;;;;;;;;;;12.50;99.90;;;;;;5056747;28;19951;-71
2023/03/30 02:23:00;;;;;;;;;;;12.50;99.90;;;;;;5056353;28;20361;-72
2023/03/30 02:25:26;;;;;;;;;;;12.50;99.90;;;;;;5055391;28;19920;-72
2023/03/30 02:27:52;;;;;;;;;;;12.40;99.90;;;;;;5056411;28;20001;-72
2023/03/30 02:30:18;;;;;;;;;;;12.40;99.90;;;;;;5056215;28;19959;-72
2023/03/30 02:32:48;;;;;;;;;;;12.40;99.90;;;;;;5056153;28;19909;-74
2023/03/30 02:35:26;;;;;;;;;;;12.40;99.90;;;;;;5056188;28;20400;-73
2023/03/30 02:38:00;;;;;;;;;;;12.40;99.90;;;;;;5056110;28;19909;-72
2023/03/30 02:40:26;;;;;;;;;;;12.30;99.90;;;;;;5055963;28;20372;-72
2023/03/30 02:42:55;;;;;;;;;;;12.30;99.90;;;;;;5055917;28;19982;-71
2023/03/30 02:45:46;;;;;;;;;;;12.30;99.90;;;;;;5056091;28;19915;-74
2023/03/30 02:48:18;;;;;;;;;;;12.30;99.90;;;;;;5056042;28;19909;-73
2023/03/30 02:50:43;;;;;;;;;;;12.30;99.90;;;;;;5055829;28;20369;-71
2023/03/30 02:53:18;;;;;;;;;;;12.30;99.90;;;;;;5055710;28;19916;-73
2023/03/30 02:55:52;;;;;;;;;;;12.40;99.90;;;;;;5055934;28;19915;-72
2023/03/30 02:58:18;;;;;;;;;;;12.50;99.90;;;;;;5055770;28;19909;-72
2023/03/30 03:00:49;;;;;;;;;;;12.40;99.90;;;;;;5055717;28;19909;-72
2023/03/30 03:03:22;;;;;;;;;;;12.40;99.90;;;;;;5055501;28;19919;-72
2023/03/30 03:05:52;;;;;;;;;;;12.50;99.90;;;;;;5055657;28;19909;-72
2023/03/30 03:08:19;;;;;;;;;;;12.40;99.90;;;;;;5055535;28;19958;-72
2023/03/30 03:10:45;;;;;;;;;;;12.40;99.90;;;;;;5055404;28;20266;-72
2023/03/30 03:13:10;;;;;;;;;;;12.30;99.90;;;;;;5055663;28;19915;-73
2023/03/30 03:15:36;;;;;;;;;;;12.30;99.90;;;;;;5055358;28;19912;-72
2023/03/30 03:18:02;;;;;;;;;;;12.30;99.90;;;;;;5055285;28;19909;-74
2023/03/30 03:20:29;;;;;;;;;;;12.20;99.90;;;;;;5055258;28;20327;-72
2023/03/30 03:22:55;;;;;;;;;;;12.20;99.90;;;;;;5055011;28;19920;-72
2023/03/30 03:25:20;;;;;;;;;;;12.20;99.90;;;;;;5053836;28;20289;-72
2023/03/30 03:27:46;;;;;;;;;;;12.20;99.90;;;;;;5055295;28;19913;-73
2023/03/30 03:30:12;;;;;;;;;;;12.20;99.90;;;;;;5055026;28;19908;-73
2023/03/30 03:32:37;;;;;;;;;;;12.20;99.90;;;;;;5054986;28;20419;-74
2023/03/30 03:35:03;;;;;;;;;;;12.10;99.90;;;;;;5054931;28;19908;-72
2023/03/30 03:37:29;;;;;;;;;;;12.20;99.90;;;;;;5053296;28;19909;-73
2023/03/30 03:39:55;;;;;;;;;;;12.10;99.90;;;;;;5054815;28;19909;-72
2023/03/30 03:42:21;;;;;;;;;;;12.10;99.90;;;;;;5054721;28;19966;-71
2023/03/30 03:44:46;;;;;;;;;;;12.10;99.90;;;;;;5054785;28;19916;-72
2023/03/30 03:47:12;;;;;;;;;;;12.10;99.90;;;;;;5054690;28;20011;-72
2023/03/30 03:49:38;;;;;;;;;;;12.00;99.90;;;;;;5053436;28;19909;-74
2023/03/30 03:52:06;;;;;;;;;;;12.00;99.90;;;;;;5054684;28;19987;-72
2023/03/30 03:54:32;;;;;;;;;;;12.00;99.90;;;;;;5054677;28;19916;-72
2023/03/30 03:56:57;;;;;;;;;;;12.00;99.90;;;;;;5054537;28;19988;-73
2023/03/30 03:59:23;;;;;;;;;;;12.00;99.90;;;;;;5054874;28;20374;-72
2023/03/30 04:01:49;;;;;;;;;;;11.90;99.90;;;;;;5054422;28;19908;-73
2023/03/30 04:04:15;;;;;;;;;;;11.90;99.90;;;;;;5053241;28;19917;-73
2023/03/30 04:06:40;;;;;;;;;;;11.90;99.90;;;;;;5054511;28;19909;-73
2023/03/30 04:09:06;;;;;;;;;;;12.10;99.90;;;;;;5054303;28;20365;-72
2023/03/30 04:11:31;;;;;;;;;;;12.10;99.90;;;;;;5054216;28;19909;-72
2023/03/30 04:13:57;;;;;;;;;;;12.10;99.90;;;;;;5054570;28;19931;-73
2023/03/30 04:16:22;;;;;;;;;;;12.20;99.90;;;;;;5054277;28;20449;-73
2023/03/30 04:18:48;;;;;;;;;;;12.20;99.90;;;;;;5054129;28;19908;-72
2023/03/30 04:21:16;;;;;;;;;;;12.20;99.90;;;;;;5054066;28;20014;-73
2023/03/30 04:23:44;;;;;;;;;;;12.20;99.90;;;;;;5054384;28;19913;-73
2023/03/30 04:26:12;;;;;;;;;;;12.30;99.90;;;;;;5052755;28;20365;-72
2023/03/30 04:28:39;;;;;;;;;;;12.30;99.90;;;;;;5054139;28;19909;-73
2023/03/30 04:31:09;;;;;;;;;;;12.40;99.90;;;;;;5053969;28;19909;-73
2023/03/30 04:33:44;;;;;;;;;;;12.40;99.90;;;;;;5053879;28;19909;-72
2023/03/30 04:36:16;;;;;;;;;;;12.40;99.90;;;;;;5052447;28;20377;-73
2023/03/30 04:38:56;;;;;;;;;;;12.50;99.90;;;;;;5053743;28;19913;-72
2023/03/30 04:41:25;;;;;;;;;;;12.40;99.90;;;;;;5054155;28;19913;-73
2023/03/30 04:43:51;;;;;;;;;;;12.40;99.90;;;;;;5053471;28;20400;-72
2023/03/30 04:46:16;;;;;;;;;;;12.40;99.90;;;;;;5053695;28;19910;-72
2023/03/30 04:48:42;;;;;;;;;;;12.40;99.90;;;;;;5053457;28;19916;-73
2023/03/30 04:51:08;;;;;;;;;;;12.40;99.90;;;;;;5052391;28;19963;-74
2023/03/30 04:53:33;;;;;;;;;;;12.40;99.90;;;;;;5053860;28;19931;-71
2023/03/30 04:55:59;;;;;;;;;;;12.40;99.90;;;;;;5053756;28;19909;-72
2023/03/30 04:58:24;;;;;;;;;;;12.50;99.90;;;;;;5053553;28;19954;-72
2023/03/30 05:00:50;;;;;;;;;;;12.50;99.90;;;;;;5053584;28;20296;-71
2023/03/30 05:03:16;;;;;;;;;;;12.50;99.90;;;;;;5053475;28;19917;-72
2023/03/30 05:05:42;;;;;;;;;;;12.50;99.90;;;;;;5053682;28;20352;-72
2023/03/30 05:08:08;;;;;;;;;;;12.60;99.90;;;;;;5053610;28;19916;-73
2023/03/30 05:10:33;;;;;;;;;;;12.50;99.90;;;;;;5053851;28;19909;-73
2023/03/30 05:12:59;;;;;;;;;;;12.50;99.90;;;;;;5053402;28;19930;-72
2023/03/30 05:15:24;;;;;;;;;;;12.40;99.90;;;;;;5053469;28;19909;-72
2023/03/30 05:17:50;;;;;;;;;;;12.40;99.90;;;;;;5053402;28;20457;-72
2023/03/30 05:20:17;;;;;;;;;;;12.30;99.90;;;;;;5053427;28;19919;-73
2023/03/30 05:22:43;;;;;;;;;;;12.40;99.90;;;;;;5052009;28;19959;-73
2023/03/30 05:25:08;;;;;;;;;;;12.30;99.90;;;;;;5053355;28;19909;-72
2023/03/30 05:27:34;;;;;;;;;;;12.30;99.90;;;;;;5053354;28;20453;-74
2023/03/30 05:30:00;;;;;;;;;;;12.30;99.90;;;;;;5053365;28;19909;-72
2023/03/30 05:32:25;;;;;;;;;;;12.40;99.90;;;;;;5053272;28;20435;-73
2023/03/30 05:34:51;;;;;;;;;;;12.40;99.90;;;;;;5053306;28;19909;-71
2023/03/30 05:37:17;;;;;;;;;;;12.30;99.90;;;;;;5053256;28;19963;-73
2023/03/30 05:39:42;;;;;;;;;;;12.30;99.90;;;;;;5053142;28;19958;-73
2023/03/30 05:42:08;;;;;;;;;;;12.30;99.90;;;;;;5053023;28;20308;-73
2023/03/30 05:44:34;;;;;;;;;;;12.40;99.90;;;;;;5053470;28;20043;-72
2023/03/30 05:47:00;;;;;;;;;;;12.40;99.90;;;;;;5053208;28;19944;-72
2023/03/30 05:49:26;;;;;;;;;;;12.40;99.90;;;;;;5053580;28;19912;-72
2023/03/30 05:51:52;;;;;;;;;;;12.40;99.90;;;;;;5053154;28;19915;-72
2023/03/30 05:54:18;;;;;;;;;;;12.40;99.90;;;;;;5053009;28;20281;-73
2023/03/30 05:56:43;;;;;;;;;;;12.40;99.90;;;;;;5052889;28;19909;-72
2023/03/30 05:59:09;;;;;;;;;;;12.40;99.90;;;;;;5053301;28;19951;-73
2023/03/30 06:01:36;;;;;;;;;;;12.40;99.90;;;;;;5056313;28;19908;-73
2023/03/30 06:04:02;;;;;;;;;;;12.40;99.90;;;;;;5056621;28;19971;-72
2023/03/30 06:06:28;;;;;;;;;;;12.40;99.90;;;;;;5056885;28;19909;-73
2023/03/30 06:08:54;;;;;;;;;;;12.40;99.90;;;;;;5056768;28;19916;-72
2023/03/30 06:11:19;;;;;;;;;;;12.40;99.90;;;;;;5056581;28;19971;-73
2023/03/30 06:13:45;;;;;;;;;;;12.50;99.90;;;;;;5056542;28;19956;-72
2023/03/30 06:16:10;;;;;;;;;;;12.40;99.90;;;;;;5056532;28;19909;-72
2023/03/30 06:18:36;;;;;;;;;;;12.50;99.90;;;;;;5056686;28;20403;-72
2023/03/30 06:21:05;;;;;;;;;;;12.40;99.90;;;;;;5056413;28;19954;-72
2023/03/30 06:23:32;;;;;;;;;;;12.50;99.90;;;;;;5056272;28;19913;-74
2023/03/30 06:25:58;;;;;;;;;;;12.50;99.90;;;;;;5056300;28;19909;-72
2023/03/30 06:28:24;;;;;;;;;;;12.50;99.90;;;;;;5054992;28;20396;-72
2023/03/30 06:30:49;;;;;;;;;;;12.50;99.90;;;;;;5056338;28;19999;-72
2023/03/30 06:33:16;;;;;;;;;;;12.60;99.90;;;;;;5056340;28;20310;-72
2023/03/30 06:35:45;;;;;;;;;;;12.70;99.90;;;;;;5056100;28;19924;-72
2023/03/30 06:38:12;;;;;;;;;;;12.60;99.90;;;;;;5056082;28;20023;-72
2023/03/30 06:40:37;;;;;;;;;;;12.50;99.90;;;;;;5056013;28;19909;-72
2023/03/30 06:43:03;;;;;;;;;;;12.40;99.90;;;;;;5055866;28;19921;-73
2023/03/30 06:45:28;;;;;;;;;;;12.40;99.90;;;;;;5056218;28;20381;-73
2023/03/30 06:47:54;;;;;;;;;;;12.40;99.90;;;;;;5056074;28;20008;-71
2023/03/30 06:50:20;;;;;;;;;;;12.40;99.90;;;;;;5055972;28;20373;-72
2023/03/30 06:52:46;;;;;;;;;;;12.40;99.90;;;;;;5055838;28;19948;-72
2023/03/30 06:55:12;;;;;;;;;;;12.40;99.90;;;;;;5055966;28;19909;-72
2023/03/30 06:57:38;;;;;;;;;;;13.00;99.90;;;;;;5055624;28;19909;-73
2023/03/30 07:00:12;;;;;;;;;;;13.90;99.90;;;;;;5055642;28;19909;-72
2023/03/30 07:02:38;;;;;;;;;;;13.80;99.90;;;;;;5055687;28;19909;-72
2023/03/30 07:05:05;;;;;;;;;;;13.40;99.90;;;;;;5055684;28;19920;-71
2023/03/30 07:07:31;;;;;;;;;;;13.30;99.90;;;;;;5055525;28;19909;-72
2023/03/30 07:09:56;;;;;;;;;;;13.30;99.90;;;;;;5055523;28;19931;-72
2023/03/30 07:12:22;;;;;;;;;;;13.40;99.90;;;;;;5054383;28;19996;-72
2023/03/30 07:14:48;;;;;;;;;;;13.80;99.90;;;;;;5054158;28;20300;-72
2023/03/30 07:17:15;;;;;;;;;;;13.80;99.90;;;;;;5055356;28;20377;-72
2023/03/30 07:19:42;;;;;;;;;;;13.60;99.90;;;;;;5055451;28;20051;-73
2023/03/30 07:22:09;;;;;;;;;;;13.30;99.90;;;;;;5055281;28;19909;-73
2023/03/30 07:24:34;;;;;;;;;;;13.20;99.90;;;;;;5055030;28;19912;-73
2023/03/30 07:27:00;;;;;;;;;;;13.30;99.90;;;;;;5055514;28;19908;-72
2023/03/30 07:29:27;;;;;;;;;;;13.40;99.90;;;;;;5055148;28;20412;-73
2023/03/30 07:31:53;;;;;;;;;;;13.50;99.90;;;;;;5055176;28;19908;-73
2023/03/30 07:34:19;;;;;;;;;;;14.10;99.90;;;;;;5055031;28;20373;-73
2023/03/30 07:36:46;;;;;;;;;;;14.40;99.90;;;;;;5054944;28;20030;-73
2023/03/30 07:39:12;;;;;;;;;;;14.80;99.90;;;;;;5055250;28;19923;-72
2023/03/30 07:41:37;;;;;;;;;;;15.30;99.90;;;;;;5054855;28;19909;-72
2023/03/30 07:44:03;;;;;;;;;;;15.80;99.90;;;;;;5054462;28;19928;-74
2023/03/30 07:46:28;;;;;;;;;;;16.20;99.90;;;;;;5054825;28;19915;-73
2023/03/30 07:48:54;;;;;;;;;;;16.70;99.90;;;;;;5054755;28;19915;-73
2023/03/30 07:51:19;;;;;;;;;;;17.20;98.40;;;;;;5053385;28;19909;-72
2023/03/30 07:53:46;;;;;;;;;;;17.30;66.60;;;;;;5054654;28;19909;-74
2023/03/30 07:56:11;;;;;;;;;;;18.40;22.50;;;;;;5054649;28;19999;-73
2023/03/30 07:58:38;;;;;;;;;;;17.50;51.70;;;;;;5054807;28;20387;-72
2023/03/30 08:01:03;;;;;;;;;;;17.30;61.80;;;;;;5054643;28;20467;-72
2023/03/30 08:03:30;;;;;;;;;;;18.10;24.90;;;;;;5054460;28;19913;-74
2023/03/30 08:06:03;;;;;;;;;;;17.20;56.50;;;;;;5054440;28;19952;-73
2023/03/30 08:08:29;;;;;;;;;;;16.20;93.30;;;;;;5054485;28;19997;-74
2023/03/30 08:10:55;;;;;;;;;;;15.30;99.90;;;;;;5054323;28;20432;-74
2023/03/30 08:13:20;;;;;;;;;;;15.20;99.90;;;;;;5054292;28;19948;-73
2023/03/30 08:15:46;;;;;;;;;;;15.30;99.90;;;;;;5054200;28;20357;-73
2023/03/30 08:18:12;;;;;;;;;;;15.60;99.90;;;;;;5054209;28;20003;-73
2023/03/30 08:20:40;;;;;;;;;;;15.50;99.90;;;;;;5069794;28;19913;-73
2023/03/30 08:23:06;;;;;;;;;;;15.80;99.90;;;;;;5053572;28;19923;-73
2023/03/30 08:25:32;;;;;;;;;;;17.00;99.90;;;;;;5053925;28;19920;-72
2023/03/30 08:27:58;;;;;;;;;;;16.50;87.00;;;;;;5054212;28;19909;-73
2023/03/30 08:30:24;;;;;;;;;;;15.70;99.90;;;;;;5054158;28;20384;-73
2023/03/30 08:32:50;;;;;;;;;;;15.50;99.90;;;;;;5053945;28;19913;-72
2023/03/30 08:35:16;;;;;;;;;;;15.50;99.90;;;;;;5054041;28;20420;-73
2023/03/30 08:37:42;;;;;;;;;;;15.20;99.90;;;;;;5053872;28;19955;-73
2023/03/30 08:40:11;;;;;;;;;;;16.10;99.90;;;;;;5053982;28;19965;-74
2023/03/30 08:42:55;;;;;;;;;;;18.20;44.30;;;;;;5053709;28;20269;-73
2023/03/30 08:45:21;;;;;;;;;;;19.40;1.00;;;;;;5054251;28;19917;-72
2023/03/30 08:47:48;;;;;;;;;;;18.10;21.30;;;;;;5053792;28;19913;-72
2023/03/30 08:50:24;;;;;;;;;;;17.00;58.70;;;;;;5053832;28;19958;-73
2023/03/30 08:52:50;;;;;;;;;;;16.80;76.80;;;;;;5052346;28;20332;-72
2023/03/30 08:55:20;;;;;;;;;;;17.10;56.70;;;;;;5053697;28;20300;-72
2023/03/30 08:57:50;;;;;;;;;;;17.40;46.90;;;;;;5053557;28;19917;-72
2023/03/30 09:00:20;;;;;;;;;;;17.30;63.70;;;;;;5053823;28;19909;-73
2023/03/30 09:02:48;;;;;;;;;;;17.00;77.50;;;;;;5052820;28;19919;-72
2023/03/30 09:05:21;;;;;;;;;;;16.40;79.60;;;;;;5053554;28;19939;-73
2023/03/30 09:07:54;;;;;;;;;;;16.30;99.10;;;;;;5053509;28;19963;-74
2023/03/30 09:10:20;;;;;;;;;;;18.00;58.30;;;;;;5053588;28;20404;-73
2023/03/30 09:12:48;;;;;;;;;;;19.90;1.00;;;;;;5053540;28;19913;-73
2023/03/30 09:15:23;;;;;;;;;;;20.10;1.00;;;;;;5053851;28;19962;-72
2023/03/30 09:17:59;;;;;;;;;;;21.90;1.00;;;;;;5053424;28;19909;-74
2023/03/30 09:20:26;;;;;;;;;;;20.90;1.00;;;;;;5053429;28;19913;-73
2023/03/30 09:22:53;;;;;;;;;;;23.60;1.00;;;;;;5053481;28;19908;-73
2023/03/30 09:25:21;;;;;;;;;;;22.70;1.00;;;;;;5053573;28;19909;-74
2023/03/30 09:27:50;;;;;;;;;;;24.10;1.00;;;;;;5053508;28;19944;-73
2023/03/30 09:30:20;;;;;;;;;;;22.00;1.00;;;;;;5053507;28;19909;-73
2023/03/30 09:32:56;;;;;;;;;;;22.60;1.00;;;;;;5053281;28;19909;-72
2023/03/30 09:35:24;;;;;;;;;;;22.40;1.00;;;;;;5054906;28;19909;-73
2023/03/30 09:37:50;;;;;;;;;;;21.90;1.00;;;;;;5057213;28;19920;-73
2023/03/30 09:40:28;;;;;;;;;;;20.30;1.00;;;;;;5057231;28;20305;-72
2023/03/30 09:43:07;;;;;;;;;;;21.50;1.00;;;;;;5057101;28;20273;-72
2023/03/30 09:45:34;;;;;;;;;;;21.90;1.00;;;;;;5057248;28;20088;-73
2023/03/30 09:48:07;;;;;;;;;;;21.40;1.00;;;;;;5057338;28;19915;-74
2023/03/30 09:50:39;;;;;;;;;;;20.00;1.00;;;;;;5057189;28;20343;-72
2023/03/30 09:53:09;;;;;;;;;;;20.40;1.00;;;;;;5056897;28;20403;-73
2023/03/30 09:55:36;;;;;;;;;;;25.20;1.00;;;;;;5056924;28;19909;-74
2023/03/30 09:58:24;;;;;;;;;;;27.50;1.00;;;;;;5056768;28;19913;-74
2023/03/30 10:01:00;;;;;;;;;;;29.50;1.00;;;;;;5056710;28;19912;-73
2023/03/30 10:03:26;;;;;;;;;;;25.50;1.00;;;;;;5056841;28;20012;-73
2023/03/30 10:06:03;;;;;;;;;;;23.00;1.00;;;;;;5055404;28;19908;-74
2023/03/30 10:08:29;;;;;;;;;;;21.10;1.00;;;;;;5056658;28;19932;-72
2023/03/30 10:10:56;;;;;;;;;;;18.50;1.00;;;;;;5056603;28;19980;-73
2023/03/30 10:13:31;;;;;;;;;;;16.30;99.90;;;;;;5056821;28;19909;-74
2023/03/30 10:16:00;;;;;;;;;;;14.90;99.90;;;;;;5056716;28;20430;-74
2023/03/30 10:18:28;;;;;;;;;;;14.20;1.00;;;;;;5056610;28;20000;-73
2023/03/30 10:21:04;;;;;;;;;;;14.10;1.00;;;;;;5056417;28;19958;-73
2023/03/30 10:23:40;;;;;;;;;;;15.10;1.00;;;;;;5056564;28;20411;-74
2023/03/30 10:26:12;;;;;;;;;;;17.60;99.90;;;;;;5056521;28;19920;-73
2023/03/30 10:28:37;;;;;;;;;;;17.60;99.90;;;;;;5056312;28;19909;-72
2023/03/30 10:31:06;;;;;;;;;;;17.70;99.90;;;;;;5056259;28;19909;-73
2023/03/30 10:33:37;;;;;;;;;;;19.50;99.90;;;;;;5056228;28;19908;-74
2023/03/30 10:36:03;;;;;;;;;;;20.50;99.90;;;;;;5056270;28;19909;-74
2023/03/30 10:38:31;;;;;;;;;;;21.60;26.50;;;;;;5056358;28;19996;-74
2023/03/30 10:41:01;;;;;;;;;;;23.50;1.00;;;;;;5056286;28;19992;-74
2023/03/30 10:43:30;;;;;;;;;;;25.30;1.00;;;;;;5054894;28;19933;-75
2023/03/30 10:45:57;;;;;;;;;;;27.80;1.00;;;;;;5055780;28;20092;-73
2023/03/30 10:48:36;;;;;;;;;;;26.80;1.00;;;;;;5055131;28;19959;-75
2023/03/30 10:51:02;;;;;;;;;;;26.70;1.00;;;;;;5056062;28;19912;-75
2023/03/30 10:53:33;;;;;;;;;;;26.60;1.00;;;;;;5055968;28;19909;-74
2023/03/30 10:56:05;;;;;;;;;;;25.80;1.00;;;;;;5055869;28;19909;-73
2023/03/30 10:58:51;;;;;;;;;;;23.20;1.00;;;;;;5055672;28;19908;-74
2023/03/30 11:01:17;;;;;;;;;;;22.00;1.00;;;;;;5055855;28;19913;-73
2023/03/30 11:03:46;;;;;;;;;;;22.30;1.00;;;;;;5055555;28;19919;-74
2023/03/30 11:06:12;;;;;;;;;;;;;;;;;;5055723;28;19912;-75
2023/03/30 11:08:38;;;;;;;;;;;;;;;;;;5055511;28;20000;-75
2023/03/30 11:11:04;;;;;;;;;;;;;;;;;;5055499;28;19916;-74
2023/03/30 11:13:30;;;;;;;;;;;;;;;;;;5055584;28;19991;-74
2023/03/30 11:15:56;;;;;;;;;;;;;;;;;;5055526;28;19915;-77
2023/03/30 11:18:22;;;;;;;;;;;;;;;;;;5055385;28;20362;-74
2023/03/30 11:20:48;;;;;;;;;;;;;;;;;;5055656;28;20039;-75
2023/03/30 11:23:14;;;;;;;;;;;;;;;;;;5055221;28;19962;-73
2023/03/30 11:25:40;;;;;;;;;;;;;;;;;;5055389;28;19948;-74
2023/03/30 11:28:07;;;;;;;;;;;;;;;;;;5055129;28;20284;-75
2023/03/30 11:30:33;;;;;;;;;;;;;;;;;;5055492;28;20285;-74
2023/03/30 11:32:59;;;;;;;;;;;;;;;;;;5055348;28;20291;-72
2023/03/30 11:35:25;;;;;;;;;;;;;;;;;;5055202;28;19995;-73
2023/03/30 11:37:51;;;;;;;;;;;;;;;;;;5054965;28;19978;-74
2023/03/30 11:40:17;;;;;;;;;;;;;;;;;;5055375;28;19919;-73
2023/03/30 11:42:43;;;;;;;;;;;;;;;;;;5055002;28;19920;-74
2023/03/30 11:45:09;;;;;;;;;;;;;;;;;;5054759;28;19923;-74
2023/03/30 11:47:35;;;;;;;;;;;;;;;;;;5054772;28;19908;-74
2023/03/30 11:50:01;;;;;;;;;;;;;;;;;;5054758;28;19909;-72
2023/03/30 11:52:27;;;;;;;;;;;;;;;;;;5054702;28;20300;-73
2023/03/30 11:54:53;;;;;;;;;;;;;;;;;;5055219;28;20293;-74
2023/03/30 11:57:19;;;;;;;;;;;;;;;;;;5054776;28;19915;-73
2023/03/30 11:59:45;;;;;;;;;;;;;;;;;;5054359;28;20420;-74
2023/03/30 12:02:11;;;;;;;;;;;;;;;;;;5054500;28;19909;-73
2023/03/30 12:04:37;;;;;;;;;;;;;;;;;;5053126;28;20309;-74
2023/03/30 12:07:03;;;;;;;;;;;;;;;;;;5054665;28;19916;-72
2023/03/30 12:09:29;;;;;;;;;;;;;;;;;;5054480;28;19912;-74
2023/03/30 12:11:55;;;;;;;;;;;;;;;;;;5054356;28;19996;-74
2023/03/30 12:14:21;;;;;;;;;;;;;;;;;;5054277;28;19909;-74
2023/03/30 12:16:47;;;;;;;;;;;;;;;;;;5054226;28;19913;-75
2023/03/30 12:19:13;;;;;;;;;;;;;;;;;;5052948;28;19908;-76
2023/03/30 12:21:39;;;;;;;;;;;;;;;;;;5054276;28;19909;-76
2023/03/30 12:24:05;;;;;;;;;;;;;;;;;;5054029;28;19919;-75
2023/03/30 12:26:33;;;;;;;;;;;;;;;;;;5054099;28;20363;-76
2023/03/30 12:28:59;;;;;;;;;;;;;;;;;;5054397;28;20007;-76
2023/03/30 12:31:25;;;;;;;;;;;;;;;;;;5054143;28;19970;-75
2023/03/30 12:33:51;;;;;;;;;;;;;;;;;;5054147;28;20003;-75
2023/03/30 12:36:17;;;;;;;;;;;;;;;;;;5053925;28;19970;-74
2023/03/30 12:38:45;;;;;;;;;;;;;;;;;;5053942;28;20274;-73
2023/03/30 12:41:14;;;;;;;;;;;;;;;;;;5052585;28;19962;-74
2023/03/30 12:43:46;;;;;;;;;;;26.20;1.00;;;;;;5053947;28;19947;-74
2023/03/30 12:46:26;;;;;;;;;;;28.60;1.00;;;;;;5054416;28;19920;-74
2023/03/30 12:48:58;;;;;;;;;;;30.50;1.00;;;;;;5053789;28;20003;-74
2023/03/30 12:51:30;;;;;;;;;;;29.40;1.00;;;;;;5054083;28;19915;-73
2023/03/30 12:54:14;;;;;;;;;;;28.00;1.00;;;;;;5053603;28;19962;-75
2023/03/30 12:56:48;;;;;;;;;;;30.50;1.00;;;;;;5053722;28;20004;-74
2023/03/30 12:59:35;;;;;;;;;;;30.40;1.00;;;;;;5052492;28;19944;-74
2023/03/30 13:02:18;;;;;;;;;;;28.00;1.00;;;;;;5053567;28;19909;-74
2023/03/30 13:04:47;;;;;;;;;;;25.80;1.00;;;;;;5053604;28;19916;-73
2023/03/30 13:07:23;;;;;;;;;;;23.60;1.00;;;;;;5053436;28;19909;-72
2023/03/30 13:09:53;;;;;;;;;;;22.90;1.00;;;;;;5054201;28;20278;-73
2023/03/30 13:12:38;;;;;;;;;;;22.10;1.00;;;;;;5060093;28;19908;-73
2023/03/30 13:15:19;;;;;;;;;;;21.30;1.00;;;;;;5058748;28;19920;-73
2023/03/30 13:17:56;;;;;;;;;;;21.20;1.00;;;;;;5060520;28;20292;-72
2023/03/30 13:20:29;;;;;;;;;;;21.70;1.00;;;;;;5060348;28;20297;-73
2023/03/30 13:23:05;;;;;;;;;;;23.60;1.00;;;;;;5060173;28;19909;-73
2023/03/30 13:25:38;;;;;;;;;;;23.60;1.00;;;;;;5060287;28;19915;-73
2023/03/30 13:28:22;;;;;;;;;;;21.40;1.00;;;;;;5060218;28;19979;-73
2023/03/30 13:30:47;;;;;;;;;;;20.50;1.00;;;;;;5059951;28;19909;-73
2023/03/30 13:33:17;;;;;;;;;;;19.60;1.00;;;;;;5059878;28;19932;-73
2023/03/30 13:35:53;;;;;;;;;;;19.60;1.00;;;;;;5059951;28;20381;-72
2023/03/30 13:38:19;;;;;;;;;;;19.60;1.00;;;;;;5060295;28;19909;-73
2023/03/30 13:40:45;;;;;;;;;;;19.50;1.00;;;;;;5059955;28;19916;-72
2023/03/30 13:43:29;;;;;;;;;;;19.20;1.00;;;;;;5059750;28;19916;-73
2023/03/30 13:46:11;;;;;;;;;;;19.30;1.00;;;;;;5060269;28;19952;-73
2023/03/30 13:48:36;;;;;;;;;;;19.40;1.00;;;;;;5059858;28;19915;-73
2023/03/30 13:51:03;;;;;;;;;;;19.60;1.00;;;;;;5059859;28;19909;-72
2023/03/30 13:53:37;;;;;;;;;;;19.60;1.00;;;;;;5060217;28;19960;-73
2023/03/30 13:56:05;;;;;;;;;;;19.40;1.00;;;;;;5060014;28;19916;-73
2023/03/30 13:58:32;;;;;;;;;;;19.10;1.00;;;;;;5059679;28;19948;-73
2023/03/30 14:00:57;;;;;;;;;;;18.70;1.00;;;;;;5059724;28;20373;-72
2023/03/30 14:03:31;;;;;;;;;;;18.60;10.30;;;;;;5058404;28;19916;-72
2023/03/30 14:06:01;;;;;;;;;;;;;;;;;;5059715;28;19962;-71
2023/03/30 14:08:33;;;;;;;;;;;17.50;6.20;;;;;;5058378;28;20436;-72
2023/03/30 14:10:59;;;;;;;;;;;17.60;14.50;;;;;;5059772;28;19908;-72
2023/03/30 14:13:24;;;;;;;;;;;17.90;8.30;;;;;;5059791;28;19920;-71
2023/03/30 14:15:50;;;;;;;;;;;17.70;8.50;;;;;;5059661;28;20399;-73
2023/03/30 14:18:22;;;;;;;;;;;17.60;17.30;;;;;;5059895;28;19996;-73
2023/03/30 14:20:49;;;;;;;;;;;17.50;14.60;;;;;;5059213;28;19916;-73
2023/03/30 14:23:15;;;;;;;;;;;18.10;11.80;;;;;;5056446;28;19951;-72
2023/03/30 14:25:40;;;;;;;;;;;19.00;1.00;;;;;;5056355;28;19952;-72
2023/03/30 14:28:26;;;;;;;;;;;21.40;1.00;;;;;;5056693;28;19913;-72
2023/03/30 14:31:03;;;;;;;;;;;20.30;1.00;;;;;;5056332;28;20369;-72
2023/03/30 14:33:29;;;;;;;;;;;19.40;1.00;;;;;;5056410;28;19917;-71
2023/03/30 14:35:55;;;;;;;;;;;18.60;1.00;;;;;;5056325;28;19909;-72
2023/03/30 14:38:21;;;;;;;;;;;17.90;1.00;;;;;;5056246;28;19908;-73
2023/03/30 14:40:48;;;;;;;;;;;17.80;14.00;;;;;;5056097;28;19919;-71
2023/03/30 14:43:40;;;;;;;;;;;17.90;5.50;;;;;;5055861;28;20389;-71